Time;durP1;ratioP1;P1;durP2;ratioP2;P2;SDS_P1;SDS_P2;PMS_P1;PMS_P2;Temp;Humidity;BMP_temperature;BMP_pressure;BME280_temperature;BME280_humidity;BME280_pressure;Samples;Min_cycle;Max_cycle;Signal;HPM_P1;HPM_P2
2021/07/23 00:00:58;;;;;;;5.25;4.74;;;;;;;21.49;69.81;100610.41;;;;-52
2021/07/23 00:03:58;;;;;;;4.88;4.47;;;;;;;21.49;69.84;100610.67;;;;-52
2021/07/23 00:06:58;;;;;;;4.96;4.47;;;;;;;21.48;69.85;100609.28;;;;-52
2021/07/23 00:09:58;;;;;;;5.05;4.55;;;;;;;21.48;69.86;100603.15;;;;-52
2021/07/23 00:12:58;;;;;;;5.16;4.67;;;;;;;21.48;69.86;100600.70;;;;-52
2021/07/23 00:15:58;;;;;;;4.99;4.49;;;;;;;21.47;69.87;100598.18;;;;-52
2021/07/23 00:18:58;;;;;;;4.42;4.02;;;;;;;21.46;69.84;100593.31;;;;-52
2021/07/23 00:21:59;;;;;;;4.71;4.29;;;;;;;21.46;69.85;100590.13;;;;-52
2021/07/23 00:24:58;;;;;;;5.55;4.47;;;;;;;21.46;69.89;100594.28;;;;-52
2021/07/23 00:27:58;;;;;;;5.03;4.40;;;;;;;21.46;69.85;100588.91;;;;-53
2021/07/23 00:30:58;;;;;;;4.79;4.24;;;;;;;21.45;69.85;100587.18;;;;-52
2021/07/23 00:33:58;;;;;;;4.45;4.05;;;;;;;21.45;69.89;100591.75;;;;-52
2021/07/23 00:36:58;;;;;;;5.11;4.46;;;;;;;21.44;69.86;100589.06;;;;-52
2021/07/23 00:39:58;;;;;;;5.19;3.93;;;;;;;21.44;69.83;100588.66;;;;-52
2021/07/23 00:42:58;;;;;;;4.79;4.12;;;;;;;21.43;69.83;100588.56;;;;-52
2021/07/23 00:45:58;;;;;;;4.41;4.01;;;;;;;21.43;69.84;100588.23;;;;-52
2021/07/23 00:48:58;;;;;;;5.47;4.39;;;;;;;21.43;69.83;100589.46;;;;-52
2021/07/23 00:51:58;;;;;;;4.43;4.01;;;;;;;21.42;69.82;100586.29;;;;-52
2021/07/23 00:54:58;;;;;;;4.53;4.07;;;;;;;21.41;69.89;100586.56;;;;-52
2021/07/23 00:57:58;;;;;;;4.59;4.13;;;;;;;21.41;69.88;100584.28;;;;-52
2021/07/23 01:00:58;;;;;;;6.85;4.18;;;;;;;21.41;69.85;100586.90;;;;-52
2021/07/23 01:03:58;;;;;;;4.31;3.91;;;;;;;21.40;69.89;100584.22;;;;-52
2021/07/23 01:06:58;;;;;;;4.97;4.01;;;;;;;21.40;69.85;100583.40;;;;-52
2021/07/23 01:09:58;;;;;;;4.28;3.89;;;;;;;21.40;69.89;100584.47;;;;-52
2021/07/23 01:12:58;;;;;;;4.78;3.84;;;;;;;21.39;69.89;100584.23;;;;-52
2021/07/23 01:15:58;;;;;;;5.38;4.10;;;;;;;21.39;69.89;100579.87;;;;-52
2021/07/23 01:18:58;;;;;;;4.69;4.09;;;;;;;21.39;69.91;100577.52;;;;-52
2021/07/23 01:21:58;;;;;;;4.83;3.75;;;;;;;21.39;69.85;100572.06;;;;-52
2021/07/23 01:24:58;;;;;;;4.41;3.92;;;;;;;21.38;69.86;100573.45;;;;-52
2021/07/23 01:27:58;;;;;;;4.51;4.08;;;;;;;21.38;69.92;100568.98;;;;-52
2021/07/23 01:30:58;;;;;;;4.31;3.91;;;;;;;21.38;69.89;100567.59;;;;-52
2021/07/23 01:33:58;;;;;;;4.73;4.05;;;;;;;21.37;69.92;100564.98;;;;-52
2021/07/23 01:36:58;;;;;;;4.63;4.03;;;;;;;21.37;69.89;100565.87;;;;-52
2021/07/23 01:39:58;;;;;;;4.00;3.61;;;;;;;21.37;69.88;100560.89;;;;-52
2021/07/23 01:42:58;;;;;;;4.21;3.81;;;;;;;21.36;69.88;100564.89;;;;-52
2021/07/23 01:45:59;;;;;;;4.55;4.02;;;;;;;21.37;69.87;100567.82;;;;-52
2021/07/23 01:48:58;;;;;;;4.32;3.92;;;;;;;21.36;69.86;100564.82;;;;-52
2021/07/23 01:51:58;;;;;;;4.84;4.44;;;;;;;21.36;69.88;100568.31;;;;-52
2021/07/23 01:54:58;;;;;;;4.37;3.96;;;;;;;21.36;69.90;100563.92;;;;-52
2021/07/23 01:57:58;;;;;;;4.85;4.35;;;;;;;21.36;69.90;100562.45;;;;-52
2021/07/23 02:00:58;;;;;;;4.51;4.09;;;;;;;21.35;69.88;100562.84;;;;-52
2021/07/23 02:03:58;;;;;;;5.13;4.10;;;;;;;21.34;69.94;100570.77;;;;-52
2021/07/23 02:06:58;;;;;;;4.07;3.67;;;;;;;21.34;69.90;100564.57;;;;-52
2021/07/23 02:09:58;;;;;;;4.59;4.19;;;;;;;21.35;69.89;100562.93;;;;-53
2021/07/23 02:13:00;;;;;;;4.22;3.82;;;;;;;21.33;69.91;100557.22;;;;-52
2021/07/23 02:15:58;;;;;;;4.41;4.01;;;;;;;21.32;69.90;100557.63;;;;-52
2021/07/23 02:18:58;;;;;;;4.21;3.81;;;;;;;21.33;69.92;100560.97;;;;-52
2021/07/23 02:21:58;;;;;;;4.18;3.88;;;;;;;21.32;69.93;100557.96;;;;-52
2021/07/23 02:24:58;;;;;;;4.37;3.96;;;;;;;21.33;69.94;100554.29;;;;-52
2021/07/23 02:27:58;;;;;;;4.11;3.75;;;;;;;21.32;69.92;100547.05;;;;-52
2021/07/23 02:30:58;;;;;;;4.15;3.75;;;;;;;21.32;69.91;100549.41;;;;-53
2021/07/23 02:33:58;;;;;;;4.31;3.91;;;;;;;21.30;69.95;100547.11;;;;-52
2021/07/23 02:36:58;;;;;;;4.53;4.07;;;;;;;21.31;69.95;100549.06;;;;-52
2021/07/23 02:39:58;;;;;;;4.18;3.68;;;;;;;21.31;69.88;100542.98;;;;-52
2021/07/23 02:42:58;;;;;;;4.11;3.71;;;;;;;21.32;69.92;100541.09;;;;-52
2021/07/23 02:45:58;;;;;;;4.28;3.75;;;;;;;21.30;69.93;100539.61;;;;-52
2021/07/23 02:48:58;;;;;;;4.06;3.67;;;;;;;21.31;69.90;100541.16;;;;-52
2021/07/23 02:51:58;;;;;;;4.61;4.07;;;;;;;21.30;69.89;100541.82;;;;-52
2021/07/23 02:54:58;;;;;;;4.73;4.17;;;;;;;21.30;69.94;100539.95;;;;-53
2021/07/23 02:57:58;;;;;;;4.26;3.86;;;;;;;21.31;69.90;100540.83;;;;-52
2021/07/23 03:00:58;;;;;;;4.65;4.25;;;;;;;21.29;69.89;100535.06;;;;-52
2021/07/23 03:03:58;;;;;;;4.33;3.93;;;;;;;21.29;69.88;100531.80;;;;-52
2021/07/23 03:06:58;;;;;;;4.53;4.13;;;;;;;21.28;69.89;100525.19;;;;-52
2021/07/23 03:09:58;;;;;;;4.18;3.79;;;;;;;21.29;69.92;100525.18;;;;-52
2021/07/23 03:12:58;;;;;;;4.53;4.13;;;;;;;21.27;69.90;100523.66;;;;-52
2021/07/23 03:15:58;;;;;;;3.95;3.58;;;;;;;21.27;69.91;100519.09;;;;-53
2021/07/23 03:18:58;;;;;;;4.15;3.75;;;;;;;21.28;69.91;100519.17;;;;-52
2021/07/23 03:21:58;;;;;;;4.30;3.90;;;;;;;21.27;69.90;100518.34;;;;-51
2021/07/23 03:25:00;;;;;;;4.10;3.70;;;;;;;21.26;69.91;100519.48;;;;-52
2021/07/23 03:27:58;;;;;;;4.68;4.28;;;;;;;21.27;69.93;100516.05;;;;-52
2021/07/23 03:30:58;;;;;;;4.77;4.32;;;;;;;21.27;69.91;100517.20;;;;-52
2021/07/23 03:33:58;;;;;;;4.66;4.26;;;;;;;21.25;69.96;100512.41;;;;-52
2021/07/23 03:36:58;;;;;;;4.23;3.83;;;;;;;21.26;69.94;100513.54;;;;-52
2021/07/23 03:39:58;;;;;;;4.51;4.11;;;;;;;21.26;69.89;100514.28;;;;-52
2021/07/23 03:42:58;;;;;;;4.66;4.21;;;;;;;21.25;69.91;100510.59;;;;-52
2021/07/23 03:45:59;;;;;;;4.69;4.29;;;;;;;21.25;69.92;100510.05;;;;-53
2021/07/23 03:48:58;;;;;;;4.53;4.09;;;;;;;21.25;69.90;100511.02;;;;-52
2021/07/23 03:51:58;;;;;;;4.39;3.99;;;;;;;21.24;69.90;100511.73;;;;-52
2021/07/23 03:54:58;;;;;;;4.45;4.05;;;;;;;21.24;69.92;100511.58;;;;-52
2021/07/23 03:57:58;;;;;;;4.55;4.15;;;;;;;21.25;69.90;100514.59;;;;-52
2021/07/23 04:00:58;;;;;;;4.76;4.36;;;;;;;21.24;69.93;100514.83;;;;-60
2021/07/23 04:03:58;;;;;;;4.31;3.91;;;;;;;21.24;69.89;100510.44;;;;-61
2021/07/23 04:06:59;;;;;;;4.90;4.49;;;;;;;21.24;69.85;100511.58;;;;-60
2021/07/23 04:09:59;;;;;;;4.65;4.07;;;;;;;21.24;69.83;100512.23;;;;-60
2021/07/23 04:12:58;;;;;;;4.39;3.83;;;;;;;21.24;69.91;100513.38;;;;-60
2021/07/23 04:15:58;;;;;;;4.82;3.66;;;;;;;21.24;69.86;100512.32;;;;-60
2021/07/23 04:18:58;;;;;;;4.87;4.26;;;;;;;21.23;69.84;100511.02;;;;-61
2021/07/23 04:21:58;;;;;;;4.61;4.21;;;;;;;21.23;69.83;100516.23;;;;-60
2021/07/23 04:24:58;;;;;;;4.67;4.21;;;;;;;21.23;69.92;100520.53;;;;-60
2021/07/23 04:27:58;;;;;;;5.43;4.93;;;;;;;21.23;69.89;100518.98;;;;-60
2021/07/23 04:30:58;;;;;;;4.62;4.17;;;;;;;21.23;69.89;100522.25;;;;-60
2021/07/23 04:33:58;;;;;;;5.12;4.72;;;;;;;21.22;69.90;100525.60;;;;-60
2021/07/23 04:37:00;;;;;;;4.87;4.47;;;;;;;21.22;69.89;100524.95;;;;-60
2021/07/23 04:39:58;;;;;;;5.33;4.93;;;;;;;21.22;69.92;100528.13;;;;-60
2021/07/23 04:42:58;;;;;;;5.41;4.85;;;;;;;21.22;69.93;100534.56;;;;-61
2021/07/23 04:45:58;;;;;;;5.39;4.94;;;;;;;21.21;69.94;100537.67;;;;-61
2021/07/23 04:48:58;;;;;;;5.33;4.87;;;;;;;21.20;69.90;100533.98;;;;-60
2021/07/23 04:51:58;;;;;;;5.25;4.85;;;;;;;21.20;69.95;100531.21;;;;-60
2021/07/23 04:55:07;;;;;;;4.85;4.45;;;;;;;21.20;69.97;100531.95;;;;-62
2021/07/23 04:57:58;;;;;;;5.24;4.77;;;;;;;21.20;69.95;100534.89;;;;-60
2021/07/23 05:00:58;;;;;;;5.56;5.06;;;;;;;21.20;69.97;100533.91;;;;-59
2021/07/23 05:03:58;;;;;;;5.34;4.93;;;;;;;21.19;69.97;100533.34;;;;-60
2021/07/23 05:06:58;;;;;;;6.03;5.53;;;;;;;21.19;69.96;100534.16;;;;-60
2021/07/23 05:09:58;;;;;;;7.51;6.66;;;;;;;21.19;68.53;100536.13;;;;-60
2021/07/23 05:12:58;;;;;;;9.44;8.43;;;;;;;21.13;67.03;100540.84;;;;-60
2021/07/23 05:15:58;;;;;;;11.43;8.51;;;;;;;21.10;66.78;100536.27;;;;-61
2021/07/23 05:18:58;;;;;;;11.57;9.03;;;;;;;21.02;66.84;100540.97;;;;-64
2021/07/23 05:21:58;;;;;;;12.12;8.39;;;;;;;20.96;67.56;100544.01;;;;-65
2021/07/23 05:24:58;;;;;;;11.15;8.47;;;;;;;20.97;67.86;100540.74;;;;-63
2021/07/23 05:27:58;;;;;;;12.47;8.25;;;;;;;20.99;68.06;100545.63;;;;-65
2021/07/23 05:30:58;;;;;;;10.49;7.75;;;;;;;21.00;68.20;100548.98;;;;-63
2021/07/23 05:33:58;;;;;;;8.88;7.60;;;;;;;21.01;68.35;100550.84;;;;-66
2021/07/23 05:36:58;;;;;;;10.27;8.48;;;;;;;21.02;68.30;100549.55;;;;-59
2021/07/23 05:39:58;;;;;;;9.83;8.61;;;;;;;21.03;68.39;100543.52;;;;-60
2021/07/23 05:42:58;;;;;;;11.44;7.38;;;;;;;21.04;68.39;100543.26;;;;-59
2021/07/23 05:45:58;;;;;;;9.36;8.40;;;;;;;21.04;68.51;100539.78;;;;-59
2021/07/23 05:48:58;;;;;;;10.14;8.15;;;;;;;21.05;68.61;100538.22;;;;-59
2021/07/23 05:51:58;;;;;;;9.47;8.39;;;;;;;21.05;68.63;100534.06;;;;-59
2021/07/23 05:54:58;;;;;;;9.66;8.05;;;;;;;21.05;68.65;100534.97;;;;-59
2021/07/23 05:57:58;;;;;;;8.94;7.86;;;;;;;21.06;68.69;100535.52;;;;-59
2021/07/23 06:00:58;;;;;;;8.25;7.45;;;;;;;21.06;68.81;100537.50;;;;-59
2021/07/23 06:03:59;;;;;;;9.55;8.55;;;;;;;21.06;68.83;100535.28;;;;-59
2021/07/23 06:06:58;;;;;;;8.75;7.94;;;;;;;21.06;68.89;100536.36;;;;-60
2021/07/23 06:09:58;;;;;;;9.86;8.93;;;;;;;21.07;68.92;100534.00;;;;-60
2021/07/23 06:12:58;;;;;;;8.23;7.03;;;;;;;21.06;68.94;100534.63;;;;-59
2021/07/23 06:15:58;;;;;;;8.88;7.98;;;;;;;21.06;68.98;100536.53;;;;-59
2021/07/23 06:18:58;;;;;;;9.73;8.77;;;;;;;21.07;69.04;100538.47;;;;-59
2021/07/23 06:21:58;;;;;;;10.87;7.95;;;;;;;21.07;69.02;100533.50;;;;-59
2021/07/23 06:24:58;;;;;;;9.49;8.25;;;;;;;21.06;69.06;100527.07;;;;-59
2021/07/23 06:27:58;;;;;;;9.73;8.79;;;;;;;21.07;69.14;100528.45;;;;-59
2021/07/23 06:30:58;;;;;;;8.39;7.59;;;;;;;21.07;69.10;100531.13;;;;-59
2021/07/23 06:33:58;;;;;;;9.71;8.81;;;;;;;21.07;69.12;100523.64;;;;-59
2021/07/23 06:36:58;;;;;;;8.83;7.87;;;;;;;21.07;69.14;100522.91;;;;-59
2021/07/23 06:39:58;;;;;;;9.10;8.20;;;;;;;21.07;69.17;100523.39;;;;-53
2021/07/23 06:42:58;;;;;;;8.12;7.35;;;;;;;21.08;69.20;100525.84;;;;-52
2021/07/23 06:45:59;;;;;;;8.33;7.47;;;;;;;21.07;69.20;100528.45;;;;-52
2021/07/23 06:48:58;;;;;;;9.37;8.47;;;;;;;21.08;69.25;100530.39;;;;-52
2021/07/23 06:51:58;;;;;;;9.37;8.49;;;;;;;21.08;69.26;100533.00;;;;-54
2021/07/23 06:54:58;;;;;;;9.63;8.67;;;;;;;21.07;69.29;100528.45;;;;-55
2021/07/23 06:57:58;;;;;;;9.30;8.35;;;;;;;21.07;69.30;100531.38;;;;-63
2021/07/23 07:00:58;;;;;;;9.64;8.71;;;;;;;21.07;69.33;100527.71;;;;-54
2021/07/23 07:03:58;;;;;;;8.35;7.55;;;;;;;21.07;69.33;100521.94;;;;-54
2021/07/23 07:06:58;;;;;;;10.03;9.14;;;;;;;21.08;69.37;100528.61;;;;-52
2021/07/23 07:09:58;;;;;;;9.77;8.85;;;;;;;21.07;69.36;100521.69;;;;-52
2021/07/23 07:12:58;;;;;;;11.39;10.39;;;;;;;21.08;69.40;100518.34;;;;-54
2021/07/23 07:15:58;;;;;;;10.10;9.23;;;;;;;21.07;69.40;100521.52;;;;-60
2021/07/23 07:18:58;;;;;;;11.14;10.11;;;;;;;21.07;69.40;100522.25;;;;-52
2021/07/23 07:21:58;;;;;;;9.69;8.79;;;;;;;21.07;69.42;100520.06;;;;-52
2021/07/23 07:24:58;;;;;;;10.23;9.34;;;;;;;21.06;69.49;100519.41;;;;-54
2021/07/23 07:28:00;;;;;;;10.89;9.88;;;;;;;21.09;69.61;100511.99;;;;-52
2021/07/23 07:30:58;;;;;;;11.06;10.05;;;;;;;21.11;69.56;100512.23;;;;-59
2021/07/23 07:33:58;;;;;;;10.63;9.65;;;;;;;21.13;69.56;100517.38;;;;-63
2021/07/23 07:36:58;;;;;;;9.46;8.41;;;;;;;21.14;69.65;100513.61;;;;-60
2021/07/23 07:39:59;;;;;;;11.31;10.31;;;;;;;21.16;69.67;100512.96;;;;-51
2021/07/23 07:42:58;;;;;;;10.70;9.55;;;;;;;21.18;69.70;100515.16;;;;-52
2021/07/23 07:45:58;;;;;;;10.93;9.97;;;;;;;21.20;69.73;100515.90;;;;-51
2021/07/23 07:48:58;;;;;;;10.89;9.80;;;;;;;21.20;69.64;100512.31;;;;-52
2021/07/23 07:51:58;;;;;;;9.47;8.57;;;;;;;21.20;69.74;100511.58;;;;-53
2021/07/23 07:54:58;;;;;;;10.29;9.27;;;;;;;21.20;69.71;100509.30;;;;-55
2021/07/23 07:57:58;;;;;;;10.73;9.80;;;;;;;21.20;69.67;100511.98;;;;-56
2021/07/23 08:00:58;;;;;;;10.16;9.25;;;;;;;21.20;69.72;100511.98;;;;-57
2021/07/23 08:03:58;;;;;;;10.76;9.67;;;;;;;21.20;69.70;100508.72;;;;-55
2021/07/23 08:07:00;;;;;;;10.36;9.35;;;;;;;21.20;69.70;100509.94;;;;-57
2021/07/23 08:10:01;;;;;;;10.09;9.18;;;;;;;21.20;69.66;100507.73;;;;-56
2021/07/23 08:12:58;;;;;;;9.87;9.01;;;;;;;21.21;69.63;100505.73;;;;-56
2021/07/23 08:15:59;;;;;;;9.60;8.75;;;;;;;21.20;69.64;100502.20;;;;-56
2021/07/23 08:18:58;;;;;;;10.84;9.83;;;;;;;21.21;69.63;100500.34;;;;-57
2021/07/23 08:21:58;;;;;;;9.69;8.83;;;;;;;21.21;69.57;100496.03;;;;-56
2021/07/23 08:24:58;;;;;;;10.33;9.36;;;;;;;21.21;69.59;100497.66;;;;-53
2021/07/23 08:27:58;;;;;;;11.06;9.94;;;;;;;21.21;69.56;100492.84;;;;-52
2021/07/23 08:30:58;;;;;;;10.11;9.05;;;;;;;21.22;69.55;100487.45;;;;-60
2021/07/23 08:33:58;;;;;;;9.64;8.77;;;;;;;21.22;69.56;100483.05;;;;-61
2021/07/23 08:36:58;;;;;;;9.59;8.69;;;;;;;21.23;69.55;100480.95;;;;-61
2021/07/23 08:39:58;;;;;;;9.10;8.33;;;;;;;21.23;69.52;100478.72;;;;-61
2021/07/23 08:42:58;;;;;;;9.12;8.25;;;;;;;21.23;69.51;100479.78;;;;-61
2021/07/23 08:45:58;;;;;;;9.80;8.88;;;;;;;21.23;69.51;100476.47;;;;-61
2021/07/23 08:48:58;;;;;;;10.35;9.35;;;;;;;21.23;69.55;100473.59;;;;-61
2021/07/23 08:51:58;;;;;;;9.80;8.89;;;;;;;21.23;69.44;100462.52;;;;-61
2021/07/23 08:54:58;;;;;;;9.34;8.52;;;;;;;21.24;69.49;100466.02;;;;-61
2021/07/23 08:57:58;;;;;;;8.79;7.97;;;;;;;21.24;69.49;100466.10;;;;-61
2021/07/23 09:00:58;;;;;;;7.97;7.21;;;;;;;21.25;69.74;100462.17;;;;-61
2021/07/23 09:03:58;;;;;;;8.06;7.23;;;;;;;21.27;69.58;100461.94;;;;-59
2021/07/23 09:06:58;;;;;;;6.88;6.26;;;;;;;21.29;69.72;100465.38;;;;-58
2021/07/23 09:10:03;;;;;;;7.25;6.53;;;;;;;21.30;69.92;100459.66;;;;-64
2021/07/23 09:13:00;;;;;;;8.21;7.41;;;;;;;21.32;69.96;100460.88;;;;-66
2021/07/23 09:15:58;;;;;;;7.59;6.31;;;;;;;21.33;69.97;100461.95;;;;-49
2021/07/23 09:18:59;;;;;;;7.33;6.58;;;;;;;21.34;69.98;100461.69;;;;-52
2021/07/23 09:21:58;;;;;;;6.90;6.11;;;;;;;21.36;70.00;100456.55;;;;-52
2021/07/23 09:24:58;;;;;;;6.22;5.62;;;;;;;21.35;69.91;100455.23;;;;-52
2021/07/23 09:27:58;;;;;;;8.42;6.27;;;;;;;21.34;69.95;100454.59;;;;-52
2021/07/23 09:30:58;;;;;;;6.85;6.19;;;;;;;21.34;69.91;100458.11;;;;-52
2021/07/23 09:33:59;;;;;;;8.05;6.03;;;;;;;21.34;69.94;100455.41;;;;-52
2021/07/23 09:36:58;;;;;;;6.52;5.92;;;;;;;21.34;69.85;100452.48;;;;-53
2021/07/23 09:39:58;;;;;;;6.84;6.24;;;;;;;21.34;69.87;100451.91;;;;-64
2021/07/23 09:42:58;;;;;;;7.09;6.43;;;;;;;21.34;69.77;100449.70;;;;-65
2021/07/23 09:45:58;;;;;;;6.83;6.01;;;;;;;21.33;69.76;100445.97;;;;-65
2021/07/23 09:49:00;;;;;;;7.18;5.90;;;;;;;21.33;69.73;100442.38;;;;-53
2021/07/23 09:52:01;;;;;;;6.83;6.14;;;;;;;21.34;69.80;100437.72;;;;-52
2021/07/23 09:54:58;;;;;;;6.04;5.44;;;;;;;21.34;69.70;100435.85;;;;-52
2021/07/23 09:57:58;;;;;;;5.67;5.17;;;;;;;21.34;69.69;100431.45;;;;-53
2021/07/23 10:01:00;;;;;;;5.89;5.35;;;;;;;21.35;69.67;100430.94;;;;-52
2021/07/23 10:03:59;;;;;;;6.60;5.69;;;;;;;21.33;69.62;100423.47;;;;-52
2021/07/23 10:07:00;;;;;;;6.84;6.21;;;;;;;21.33;69.64;100417.09;;;;-53
2021/07/23 10:09:58;;;;;;;5.81;5.20;;;;;;;21.33;69.67;100409.67;;;;-53
2021/07/23 10:12:58;;;;;;;6.03;5.49;;;;;;;21.34;69.61;100406.02;;;;-53
2021/07/23 10:15:58;;;;;;;6.15;5.49;;;;;;;21.33;69.63;100402.17;;;;-52
2021/07/23 10:18:58;;;;;;;5.93;5.07;;;;;;;21.33;69.61;100397.88;;;;-52
2021/07/23 10:21:58;;;;;;;5.99;5.49;;;;;;;21.33;69.56;100395.76;;;;-52
2021/07/23 10:24:58;;;;;;;5.88;5.29;;;;;;;21.33;69.58;100392.71;;;;-54
2021/07/23 10:27:58;;;;;;;6.40;5.38;;;;;;;21.34;69.54;100389.15;;;;-53
2021/07/23 10:30:58;;;;;;;6.08;5.49;;;;;;;21.33;69.55;100389.07;;;;-53
2021/07/23 10:33:58;;;;;;;6.31;5.70;;;;;;;21.33;69.52;100380.92;;;;-52
2021/07/23 10:36:58;;;;;;;5.55;4.91;;;;;;;21.34;69.52;100374.06;;;;-52
2021/07/23 10:39:58;;;;;;;6.21;5.19;;;;;;;21.34;69.45;100375.69;;;;-61
2021/07/23 10:42:58;;;;;;;6.25;5.49;;;;;;;21.34;69.47;100377.80;;;;-61
2021/07/23 10:45:58;;;;;;;6.25;5.42;;;;;;;21.34;69.45;100372.27;;;;-60
2021/07/23 10:48:58;;;;;;;6.20;5.65;;;;;;;21.34;69.49;100366.23;;;;-52
2021/07/23 10:51:59;;;;;;;5.61;5.08;;;;;;;21.35;69.44;100363.52;;;;-62
2021/07/23 10:54:58;;;;;;;6.43;5.79;;;;;;;21.36;69.43;100357.43;;;;-52
2021/07/23 10:57:58;;;;;;;6.48;5.85;;;;;;;21.35;69.45;100354.50;;;;-53
2021/07/23 11:01:58;;;;;;;6.13;5.53;;;;;;;21.36;69.44;100351.31;;;;-53
2021/07/23 11:04:58;;;;;;;6.31;5.71;;;;;;;21.36;69.42;100352.30;;;;-67
2021/07/23 11:07:59;;;;;;;5.38;4.88;;;;;;;21.35;69.42;100347.16;;;;-61
2021/07/23 11:10:58;;;;;;;5.93;5.20;;;;;;;21.35;69.44;100347.22;;;;-53
2021/07/23 11:13:58;;;;;;;5.60;5.07;;;;;;;21.35;69.45;100339.83;;;;-53
2021/07/23 11:16:58;;;;;;;6.59;5.49;;;;;;;21.35;69.43;100340.70;;;;-52
2021/07/23 11:19:59;;;;;;;5.07;4.61;;;;;;;21.35;69.45;100335.42;;;;-64
2021/07/23 11:22:58;;;;;;;5.20;4.70;;;;;;;21.36;69.43;100332.16;;;;-67
2021/07/23 11:25:58;;;;;;;5.89;5.31;;;;;;;21.36;69.42;100326.53;;;;-65
2021/07/23 11:28:58;;;;;;;5.53;4.99;;;;;;;21.35;69.39;100319.78;;;;-52
2021/07/23 11:31:58;;;;;;;5.35;4.82;;;;;;;21.35;69.41;100310.54;;;;-53
2021/07/23 11:34:58;;;;;;;5.19;4.68;;;;;;;21.36;69.41;100310.15;;;;-53
2021/07/23 11:37:58;;;;;;;6.34;5.74;;;;;;;21.35;69.44;100305.00;;;;-52
2021/07/23 11:40:58;;;;;;;5.64;5.09;;;;;;;21.36;69.43;100306.33;;;;-52
2021/07/23 11:43:58;;;;;;;5.81;5.26;;;;;;;21.35;69.44;100303.47;;;;-52
2021/07/23 11:46:58;;;;;;;5.61;5.08;;;;;;;21.35;69.42;100293.51;;;;-52
2021/07/23 11:49:58;;;;;;;5.51;5.00;;;;;;;21.35;69.43;100286.09;;;;-62
2021/07/23 11:52:58;;;;;;;5.65;5.15;;;;;;;21.35;69.43;100285.11;;;;-60
2021/07/23 11:55:58;;;;;;;5.56;5.07;;;;;;;21.35;69.41;100278.69;;;;-53
2021/07/23 11:58:58;;;;;;;5.57;5.07;;;;;;;21.35;69.42;100273.38;;;;-52
2021/07/23 12:01:58;;;;;;;6.31;4.76;;;;;;;21.35;69.43;100271.09;;;;-52
2021/07/23 12:04:58;;;;;;;5.36;4.86;;;;;;;21.34;69.43;100272.48;;;;-52
2021/07/23 12:07:58;;;;;;;6.13;5.40;;;;;;;21.35;69.44;100268.64;;;;-52
2021/07/23 12:11:00;;;;;;;5.17;4.68;;;;;;;21.34;69.38;100263.53;;;;-52
2021/07/23 12:13:58;;;;;;;4.82;4.42;;;;;;;21.35;69.43;100260.17;;;;-52
2021/07/23 12:16:58;;;;;;;5.49;4.99;;;;;;;21.35;69.45;100261.39;;;;-52
2021/07/23 12:19:58;;;;;;;6.74;4.91;;;;;;;21.36;69.61;100260.19;;;;-47
2021/07/23 12:22:58;;;;;;;5.49;4.99;;;;;;;21.37;69.67;100254.53;;;;-48
2021/07/23 12:25:58;;;;;;;6.53;4.95;;;;;;;21.39;69.77;100250.86;;;;-61
2021/07/23 12:28:58;;;;;;;7.17;6.61;;;;;;;21.40;69.92;100252.74;;;;-68
2021/07/23 12:31:58;;;;;;;6.17;4.71;;;;;;;21.42;70.03;100248.09;;;;-66
2021/07/23 12:34:58;;;;;;;5.43;4.33;;;;;;;21.44;70.17;100247.20;;;;-62
2021/07/23 12:37:58;;;;;;;6.13;4.75;;;;;;;21.45;70.09;100243.11;;;;-57
2021/07/23 12:40:59;;;;;;;5.99;4.61;;;;;;;21.47;70.15;100237.39;;;;-64
2021/07/23 12:43:58;;;;;;;5.74;5.15;;;;;;;21.48;70.12;100234.80;;;;-57
2021/07/23 12:46:58;;;;;;;4.77;4.35;;;;;;;21.49;70.22;100228.58;;;;-56
2021/07/23 12:49:59;;;;;;;6.87;4.49;;;;;;;21.49;70.09;100226.87;;;;-56
2021/07/23 12:52:58;;;;;;;4.88;4.39;;;;;;;21.50;70.06;100222.86;;;;-61
2021/07/23 12:55:58;;;;;;;4.43;4.03;;;;;;;21.49;69.94;100218.31;;;;-62
2021/07/23 12:58:58;;;;;;;5.56;4.13;;;;;;;21.48;70.05;100219.47;;;;-62
2021/07/23 13:01:58;;;;;;;5.48;4.05;;;;;;;21.49;70.05;100213.91;;;;-62
2021/07/23 13:04:59;;;;;;;8.88;4.51;;;;;;;21.47;70.13;100208.94;;;;-55
2021/07/23 13:07:58;;;;;;;5.79;4.45;;;;;;;21.47;70.04;100205.44;;;;-55
2021/07/23 13:10:58;;;;;;;5.28;4.29;;;;;;;21.47;70.02;100205.45;;;;-67
2021/07/23 13:13:58;;;;;;;6.15;4.01;;;;;;;21.46;70.05;100199.42;;;;-66
2021/07/23 13:16:59;;;;;;;6.51;4.43;;;;;;;21.47;70.03;100195.48;;;;-67
2021/07/23 13:19:58;;;;;;;4.69;4.03;;;;;;;21.48;70.21;100193.36;;;;-63
2021/07/23 13:22:58;;;;;;;4.75;4.05;;;;;;;21.49;70.17;100188.86;;;;-56
2021/07/23 13:25:58;;;;;;;5.92;3.92;;;;;;;21.51;70.19;100182.67;;;;-55
2021/07/23 13:28:58;;;;;;;8.03;4.07;;;;;;;21.53;70.25;100180.45;;;;-65
2021/07/23 13:31:58;;;;;;;6.29;4.48;;;;;;;21.54;70.23;100174.73;;;;-63
2021/07/23 13:34:58;;;;;;;7.29;4.28;;;;;;;21.55;70.21;100171.39;;;;-63
2021/07/23 13:37:58;;;;;;;6.01;4.33;;;;;;;21.56;70.35;100167.38;;;;-60
2021/07/23 13:40:58;;;;;;;4.75;3.99;;;;;;;21.57;70.35;100163.23;;;;-60
2021/07/23 13:43:58;;;;;;;6.37;4.22;;;;;;;21.58;70.09;100162.63;;;;-57
2021/07/23 13:46:58;;;;;;;4.38;3.98;;;;;;;21.56;70.19;100163.81;;;;-57
2021/07/23 13:50:00;;;;;;;4.65;4.11;;;;;;;21.56;70.20;100166.66;;;;-57
2021/07/23 13:52:58;;;;;;;5.71;4.04;;;;;;;21.55;70.14;100160.80;;;;-62
2021/07/23 13:55:58;;;;;;;5.16;3.91;;;;;;;21.56;70.20;100156.70;;;;-63
2021/07/23 13:58:58;;;;;;;4.93;4.23;;;;;;;21.57;70.13;100154.66;;;;-63
2021/07/23 14:01:58;;;;;;;6.33;4.20;;;;;;;21.59;70.23;100156.53;;;;-62
2021/07/23 14:04:58;;;;;;;8.25;4.50;;;;;;;21.57;70.24;100155.16;;;;-56
2021/07/23 14:07:58;;;;;;;5.91;4.11;;;;;;;21.58;70.29;100152.95;;;;-56
2021/07/23 14:10:58;;;;;;;6.69;4.54;;;;;;;21.60;70.27;100145.41;;;;-67
2021/07/23 14:13:58;;;;;;;6.13;4.18;;;;;;;21.61;70.25;100143.80;;;;-58
2021/07/23 14:16:58;;;;;;;7.25;4.25;;;;;;;21.63;70.26;100142.39;;;;-60
2021/07/23 14:19:58;;;;;;;6.77;4.41;;;;;;;21.63;70.28;100137.25;;;;-62
2021/07/23 14:22:58;;;;;;;5.21;3.83;;;;;;;21.65;70.31;100135.94;;;;-59
2021/07/23 14:25:58;;;;;;;6.62;4.33;;;;;;;21.65;70.34;100132.98;;;;-59
2021/07/23 14:28:58;;;;;;;7.63;4.46;;;;;;;21.67;70.23;100131.60;;;;-60
2021/07/23 14:31:58;;;;;;;6.57;4.44;;;;;;;21.67;70.27;100128.09;;;;-62
2021/07/23 14:34:58;;;;;;;7.91;4.13;;;;;;;21.68;70.24;100130.27;;;;-65
2021/07/23 14:37:58;;;;;;;5.23;4.37;;;;;;;21.68;70.27;100128.30;;;;-59
2021/07/23 14:40:58;;;;;;;5.09;4.08;;;;;;;21.69;70.22;100125.86;;;;-57
2021/07/23 14:43:59;;;;;;;6.05;4.07;;;;;;;21.69;70.27;100125.94;;;;-65
2021/07/23 14:46:58;;;;;;;7.41;4.15;;;;;;;21.72;70.24;100128.13;;;;-59
2021/07/23 14:49:58;;;;;;;4.57;4.14;;;;;;;21.72;70.21;100125.67;;;;-66
2021/07/23 14:52:58;;;;;;;6.51;4.25;;;;;;;21.72;70.18;100129.17;;;;-62
2021/07/23 14:56:00;;;;;;;9.23;4.09;;;;;;;21.74;69.96;100124.84;;;;-62
2021/07/23 14:58:58;;;;;;;6.80;4.53;;;;;;;21.73;70.08;100123.22;;;;-60
2021/07/23 15:01:59;;;;;;;11.67;4.43;;;;;;;21.74;70.06;100119.30;;;;-61
2021/07/23 15:05:00;;;;;;;7.61;4.38;;;;;;;21.75;69.93;100118.32;;;;-61
2021/07/23 15:07:58;;;;;;;6.27;4.41;;;;;;;21.75;69.98;100114.06;;;;-60
2021/07/23 15:10:58;;;;;;;6.43;4.75;;;;;;;21.76;69.96;100112.10;;;;-62
2021/07/23 15:13:58;;;;;;;7.80;4.37;;;;;;;21.76;69.96;100109.73;;;;-61
2021/07/23 15:16:58;;;;;;;6.95;4.40;;;;;;;21.78;70.00;100100.91;;;;-61
2021/07/23 15:19:58;;;;;;;6.58;4.31;;;;;;;21.77;69.97;100099.05;;;;-58
2021/07/23 15:22:58;;;;;;;7.73;4.45;;;;;;;21.79;69.94;100096.34;;;;-54
2021/07/23 15:25:58;;;;;;;11.44;4.34;;;;;;;21.80;70.28;100097.30;;;;-52
2021/07/23 15:28:58;;;;;;;8.89;4.17;;;;;;;21.80;70.29;100090.77;;;;-57
2021/07/23 15:31:58;;;;;;;9.69;4.46;;;;;;;21.80;70.16;100089.70;;;;-51
2021/07/23 15:34:58;;;;;;;6.11;3.99;;;;;;;21.81;70.16;100091.75;;;;-50
2021/07/23 15:38:00;;;;;;;8.21;4.41;;;;;;;21.82;70.25;100090.91;;;;-49
2021/07/23 15:40:58;;;;;;;7.79;4.52;;;;;;;21.83;70.16;100085.63;;;;-49
2021/07/23 15:43:58;;;;;;;7.53;4.35;;;;;;;21.84;70.28;100087.41;;;;-53
2021/07/23 15:46:58;;;;;;;6.50;4.21;;;;;;;21.84;70.18;100079.97;;;;-56
2021/07/23 15:49:58;;;;;;;8.81;3.82;;;;;;;21.85;70.03;100084.12;;;;-57
2021/07/23 15:52:58;;;;;;;8.08;4.31;;;;;;;21.84;70.18;100074.42;;;;-51
2021/07/23 15:55:58;;;;;;;5.96;4.12;;;;;;;21.85;70.24;100071.41;;;;-57
2021/07/23 15:59:00;;;;;;;6.91;4.43;;;;;;;21.86;70.24;100070.33;;;;-50
2021/07/23 16:01:58;;;;;;;8.10;4.49;;;;;;;21.86;70.25;100062.98;;;;-54
2021/07/23 16:05:00;;;;;;;6.73;4.09;;;;;;;21.87;70.26;100073.66;;;;-54
2021/07/23 16:07:58;;;;;;;7.14;3.87;;;;;;;21.87;69.93;100069.98;;;;-65
2021/07/23 16:10:58;;;;;;;7.01;4.08;;;;;;;21.87;69.88;100066.48;;;;-64
2021/07/23 16:13:58;;;;;;;7.87;3.94;;;;;;;21.85;70.13;100062.02;;;;-64
2021/07/23 16:16:58;;;;;;;8.05;4.13;;;;;;;21.85;70.03;100060.70;;;;-65
2021/07/23 16:19:58;;;;;;;9.33;4.09;;;;;;;21.84;70.01;100057.30;;;;-65
2021/07/23 16:22:58;;;;;;;8.58;4.14;;;;;;;21.84;70.03;100057.46;;;;-55
2021/07/23 16:25:58;;;;;;;12.15;4.06;;;;;;;21.83;69.96;100050.28;;;;-54
2021/07/23 16:28:58;;;;;;;6.70;3.91;;;;;;;21.83;69.98;100046.77;;;;-55
2021/07/23 16:31:58;;;;;;;7.02;3.84;;;;;;;21.82;69.92;100044.50;;;;-55
2021/07/23 16:34:58;;;;;;;7.09;3.77;;;;;;;21.82;69.88;100039.53;;;;-55
2021/07/23 16:37:58;;;;;;;6.61;3.73;;;;;;;21.81;69.89;100033.82;;;;-54
2021/07/23 16:40:58;;;;;;;5.25;3.96;;;;;;;21.80;69.86;100029.19;;;;-54